Airfield :
LOGIN :

Register | Disclaimer

   EN    FR    IT 

 










Legend :    VFR   Marginal VFR   IFR   Intensive IFR   Very Intensive IFR
Visi :
Ceiling :
>= 8 km
>= 3000ft
5 to 8 km
1000 to 3000 ft
1500m to 5 km
500 to 1000 ft
800 to 1500m
200 to 500 ft
< 800m
< 200 ft
Symbols :   Thunderstorms  Fog  Heavy snow  Heavy precipitations  Wind > 20 kt
SIGMETs :     Misc.  Thunderstorms  Icing  Turbulence  Mountain Waves  Volcanic Ashes






- Airport Elevation : 48 ft
- IATA code : PSR


LIBP - Abruzzo Pescara

CURRENT METAR :
  • 270220Z AUTO 23002KT 3900 BR NCD 04/04 Q1023

EXPIRED METARs :
  • 270150Z AUTO 24004KT 4800 BR NCD 04/04 Q1023
  • 270120Z AUTO 21005KT 4300 BR NCD 04/03 Q1023
  • 270050Z AUTO 21005KT 3600 BR NCD 04/04 Q1023
  • 270020Z AUTO 23004KT 2500 BR NCD 05/04 Q1023
  • 262350Z AUTO 21006KT 3900 BR NCD 05/04 Q1023

TAF TAF LIBP
Valid from the 27 at 00:00 until the 28 at 00:00 UTC


262300Z 2700/2724 VRB05KT CAVOK
TEMPO 2700/2707 4000 BR



MET'MAP, your aeronautical weather chart ! - Copyright ORBIFLY December 2007 - Disclaimer

ORBIFLY MET'MAP TEAM :

Programming & Development : Alexandra Zaïnal
Concept & original design : Baudouin d'Aumeries
Assistance for programming : Marc-Olivier Méhu
Technical & hardware support : Manuel Goepfert

Contact : metmap@orbifly.com




SOURCES & CREDITS :

   NOAA